Time;durP1;ratioP1;P1;durP2;ratioP2;P2;SDS_P1;SDS_P2;PMS_P1;PMS_P2;Temp;Humidity;BMP_temperature;BMP_pressure;BME280_temperature;BME280_humidity;BME280_pressure;Samples;Min_cycle;Max_cycle;Signal;HPM_P1;HPM_P2
2023/08/20 00:01:40;;;;;;;;;;;24.10;65.60;;;;;;10190324;28;93489;-56
2023/08/20 00:06:44;;;;;;;;;;;24.10;65.60;;;;;;10193609;28;93638;-56
2023/08/20 00:11:49;;;;;;;;;;;24.10;65.50;;;;;;10193344;28;94435;-56
2023/08/20 00:16:51;;;;;;;;;;;24.10;65.40;;;;;;10191082;28;95823;-56
2023/08/20 00:21:53;;;;;;;;;;;24.10;65.40;;;;;;10189091;28;94596;-56
2023/08/20 00:26:54;;;;;;;;;;;24.10;65.30;;;;;;10193148;28;94055;-56
2023/08/20 00:31:57;;;;;;;;;;;24.10;65.20;;;;;;10193441;28;93565;-56
2023/08/20 00:36:59;;;;;;;;;;;24.10;65.20;;;;;;10192167;28;94412;-56
2023/08/20 00:42:00;;;;;;;;;;;24.10;65.10;;;;;;10181958;28;95842;-56
2023/08/20 00:47:04;;;;;;;;;;;24.10;65.10;;;;;;10180282;28;94437;-56
2023/08/20 00:52:08;;;;;;;;;;;24.10;65.10;;;;;;10188734;28;94534;-56
2023/08/20 00:57:09;;;;;;;;;;;24.10;65.10;;;;;;10189533;28;93422;-56
2023/08/20 01:02:12;;;;;;;;;;;24.10;65.00;;;;;;10194506;28;93828;-56
2023/08/20 01:07:26;;;;;;;;;;;24.10;64.90;;;;;;10179775;28;94355;-56
2023/08/20 01:12:29;;;;;;;;;;;24.10;64.80;;;;;;10192541;28;94751;-56
2023/08/20 01:17:31;;;;;;;;;;;24.10;64.70;;;;;;10182726;28;93598;-56
2023/08/20 01:22:51;;;;;;;;;;;24.10;64.70;;;;;;10189997;28;93461;-56
2023/08/20 01:27:53;;;;;;;;;;;24.10;64.70;;;;;;10191211;28;93496;-56
2023/08/20 01:32:55;;;;;;;;;;;24.10;64.70;;;;;;10187957;28;96639;-56
2023/08/20 01:37:57;;;;;;;;;;;24.10;64.60;;;;;;10191192;28;94286;-55
2023/08/20 01:42:59;;;;;;;;;;;24.00;64.50;;;;;;10206827;28;94073;-56
2023/08/20 01:48:03;;;;;;;;;;;24.00;64.40;;;;;;10176596;28;93584;-56
2023/08/20 01:53:05;;;;;;;;;;;24.00;64.40;;;;;;10197548;28;94807;-56
2023/08/20 01:58:07;;;;;;;;;;;24.00;64.30;;;;;;10196536;28;95975;-57
2023/08/20 02:03:09;;;;;;;;;;;24.00;64.40;;;;;;10194494;28;95333;-56
2023/08/20 02:08:11;;;;;;;;;;;24.00;64.40;;;;;;10199363;28;93771;-56
2023/08/20 02:13:13;;;;;;;;;;;24.00;64.50;;;;;;10195734;28;93996;-57
2023/08/20 02:18:16;;;;;;;;;;;23.90;64.40;;;;;;10186364;28;94484;-56
2023/08/20 02:23:19;;;;;;;;;;;23.90;64.40;;;;;;10192586;28;96813;-56
2023/08/20 02:28:21;;;;;;;;;;;23.90;64.50;;;;;;10195526;28;93532;-57
2023/08/20 02:33:22;;;;;;;;;;;23.90;64.40;;;;;;10192068;28;93444;-56
2023/08/20 02:38:24;;;;;;;;;;;23.90;64.40;;;;;;10193095;28;93532;-56
2023/08/20 02:43:26;;;;;;;;;;;23.90;64.30;;;;;;10195320;28;92796;-55
2023/08/20 02:48:28;;;;;;;;;;;23.90;64.30;;;;;;10194780;28;94289;-56
2023/08/20 02:53:30;;;;;;;;;;;23.80;64.20;;;;;;10194814;28;94794;-56
2023/08/20 02:58:32;;;;;;;;;;;23.80;64.30;;;;;;10190949;28;91960;-56
2023/08/20 03:03:34;;;;;;;;;;;23.80;64.30;;;;;;10192599;28;93401;-56
2023/08/20 03:08:37;;;;;;;;;;;23.80;64.30;;;;;;10194608;28;93831;-56
2023/08/20 03:13:39;;;;;;;;;;;23.80;64.30;;;;;;10189505;28;96693;-56
2023/08/20 03:18:41;;;;;;;;;;;23.80;64.30;;;;;;10204920;28;94021;-56
2023/08/20 03:23:43;;;;;;;;;;;23.70;64.20;;;;;;10197098;28;93623;-55
2023/08/20 03:28:44;;;;;;;;;;;23.70;64.40;;;;;;10200407;28;94724;-56
2023/08/20 03:33:49;;;;;;;;;;;23.70;64.30;;;;;;10208005;28;94065;-56
2023/08/20 03:38:50;;;;;;;;;;;23.70;64.30;;;;;;10192603;28;94822;-55
2023/08/20 03:43:52;;;;;;;;;;;23.70;64.30;;;;;;10192367;28;93666;-56
2023/08/20 03:48:54;;;;;;;;;;;23.70;64.30;;;;;;10183758;28;93842;-55
2023/08/20 03:53:56;;;;;;;;;;;23.60;64.20;;;;;;10190819;28;93439;-55
2023/08/20 03:58:59;;;;;;;;;;;23.60;64.20;;;;;;10193325;28;94393;-56
2023/08/20 04:04:00;;;;;;;;;;;23.60;64.20;;;;;;10190787;28;96372;-56
2023/08/20 04:09:03;;;;;;;;;;;23.60;65.20;;;;;;10193482;28;93844;-56
2023/08/20 04:14:04;;;;;;;;;;;23.60;64.20;;;;;;10193162;28;94471;-55
2023/08/20 04:19:07;;;;;;;;;;;23.60;64.30;;;;;;10190894;28;93570;-56
2023/08/20 04:24:09;;;;;;;;;;;23.60;64.30;;;;;;10207716;28;93095;-56
2023/08/20 04:29:11;;;;;;;;;;;23.60;64.30;;;;;;10190426;28;93628;-56
2023/08/20 04:34:13;;;;;;;;;;;23.60;64.30;;;;;;10190988;28;93601;-56
2023/08/20 04:39:15;;;;;;;;;;;23.60;64.30;;;;;;10189924;28;94003;-56
2023/08/20 04:44:18;;;;;;;;;;;23.60;64.30;;;;;;10187156;28;93926;-56
2023/08/20 04:49:20;;;;;;;;;;;23.60;64.30;;;;;;10652181;22;95257;-62
2023/08/20 04:54:21;;;;;;;;;;;23.60;64.30;;;;;;10143118;28;98358;-64
2023/08/20 04:59:23;;;;;;;;;;;23.60;64.30;;;;;;10154147;28;93888;-64
2023/08/20 05:04:25;;;;;;;;;;;23.60;64.20;;;;;;10146735;28;93499;-63
2023/08/20 05:09:27;;;;;;;;;;;23.60;64.30;;;;;;10141362;28;94364;-63
2023/08/20 05:14:30;;;;;;;;;;;23.60;64.30;;;;;;10142491;28;93371;-63
2023/08/20 05:19:31;;;;;;;;;;;23.60;64.20;;;;;;10149645;28;93607;-63
2023/08/20 05:24:33;;;;;;;;;;;23.60;64.20;;;;;;10150092;28;93510;-63
2023/08/20 05:29:36;;;;;;;;;;;23.60;64.20;;;;;;10153823;28;92549;-63
2023/08/20 05:34:39;;;;;;;;;;;23.60;64.20;;;;;;10156245;28;94836;-64
2023/08/20 05:39:42;;;;;;;;;;;23.60;64.20;;;;;;10141719;28;94481;-63
2023/08/20 05:44:45;;;;;;;;;;;23.60;64.10;;;;;;10164411;28;96866;-64
2023/08/20 05:49:47;;;;;;;;;;;23.60;64.10;;;;;;10183990;28;94428;-64
2023/08/20 05:54:49;;;;;;;;;;;23.60;64.10;;;;;;10155472;28;94473;-63
2023/08/20 05:59:51;;;;;;;;;;;23.60;63.90;;;;;;10161616;28;93437;-63
2023/08/20 06:04:53;;;;;;;;;;;23.60;65.00;;;;;;10146302;28;93966;-61
2023/08/20 06:09:56;;;;;;;;;;;23.50;65.10;;;;;;10153966;28;93506;-61
2023/08/20 06:14:58;;;;;;;;;;;23.50;64.80;;;;;;10171418;28;94768;-60
2023/08/20 06:20:00;;;;;;;;;;;23.50;64.70;;;;;;10169807;28;93134;-61
2023/08/20 06:25:03;;;;;;;;;;;23.50;64.70;;;;;;10159746;28;93576;-61
2023/08/20 06:30:05;;;;;;;;;;;23.50;64.70;;;;;;10158326;28;94760;-61
2023/08/20 06:35:09;;;;;;;;;;;23.50;64.70;;;;;;10154817;28;97563;-61
2023/08/20 06:40:11;;;;;;;;;;;23.60;64.80;;;;;;10151937;28;92763;-61
2023/08/20 06:45:16;;;;;;;;;;;23.60;64.80;;;;;;10174180;28;94319;-61
2023/08/20 06:50:18;;;;;;;;;;;23.60;64.90;;;;;;10172394;28;94822;-61
2023/08/20 06:55:20;;;;;;;;;;;23.60;64.70;;;;;;10145821;28;93483;-61
2023/08/20 07:00:22;;;;;;;;;;;23.60;64.70;;;;;;10157944;28;94503;-61
2023/08/20 07:05:24;;;;;;;;;;;23.60;64.70;;;;;;10160115;28;93324;-61
2023/08/20 07:10:25;;;;;;;;;;;23.60;64.80;;;;;;10158211;28;93414;-61
2023/08/20 07:15:27;;;;;;;;;;;23.60;64.80;;;;;;10155839;28;93601;-61
2023/08/20 07:20:29;;;;;;;;;;;23.60;64.90;;;;;;10155049;28;94510;-61
2023/08/20 07:25:31;;;;;;;;;;;23.60;64.80;;;;;;10140783;28;96070;-61
2023/08/20 07:30:33;;;;;;;;;;;23.60;64.90;;;;;;10153542;28;93910;-61
2023/08/20 07:35:35;;;;;;;;;;;23.60;64.90;;;;;;10154754;28;94419;-61
2023/08/20 07:40:37;;;;;;;;;;;23.60;64.90;;;;;;10155683;28;93494;-61
2023/08/20 07:45:39;;;;;;;;;;;23.60;64.90;;;;;;10166445;28;94218;-61
2023/08/20 07:50:41;;;;;;;;;;;23.60;65.00;;;;;;10155866;28;93191;-61
2023/08/20 07:55:43;;;;;;;;;;;23.70;65.00;;;;;;10152473;28;93855;-61
2023/08/20 08:00:49;;;;;;;;;;;23.70;65.00;;;;;;10156199;28;92716;-61
2023/08/20 08:05:51;;;;;;;;;;;23.70;65.10;;;;;;10146192;28;93152;-61
2023/08/20 08:10:53;;;;;;;;;;;23.60;65.10;;;;;;10155767;28;96204;-60
2023/08/20 08:15:55;;;;;;;;;;;23.70;65.10;;;;;;10145872;28;96903;-61
2023/08/20 08:20:58;;;;;;;;;;;23.70;65.10;;;;;;10155610;28;95828;-62
2023/08/20 08:25:59;;;;;;;;;;;23.70;65.10;;;;;;10155699;28;93393;-61
2023/08/20 08:31:01;;;;;;;;;;;23.70;65.10;;;;;;10136147;28;94690;-61
2023/08/20 08:36:04;;;;;;;;;;;23.70;65.10;;;;;;10140412;28;93532;-62
2023/08/20 08:41:09;;;;;;;;;;;23.70;65.10;;;;;;10150835;28;94012;-61
2023/08/20 08:46:14;;;;;;;;;;;23.70;65.10;;;;;;10169872;28;94455;-61
2023/08/20 08:51:17;;;;;;;;;;;23.70;65.10;;;;;;10157258;28;93492;-61
2023/08/20 08:56:20;;;;;;;;;;;23.70;65.10;;;;;;10136342;28;94394;-61
2023/08/20 09:01:21;;;;;;;;;;;23.70;65.20;;;;;;10152516;28;93521;-61
2023/08/20 09:06:23;;;;;;;;;;;23.70;65.10;;;;;;10158683;28;95905;-61
2023/08/20 09:11:34;;;;;;;;;;;23.70;65.10;;;;;;10154744;28;94507;-61
2023/08/20 09:16:35;;;;;;;;;;;23.80;65.20;;;;;;10165613;28;93860;-61
2023/08/20 09:21:37;;;;;;;;;;;23.80;65.20;;;;;;10164570;28;93781;-61
2023/08/20 09:26:44;;;;;;;;;;;23.70;65.10;;;;;;10158460;28;94083;-61
2023/08/20 09:31:47;;;;;;;;;;;23.80;65.10;;;;;;10149524;28;93490;-61
2023/08/20 09:36:49;;;;;;;;;;;23.70;65.00;;;;;;10174385;28;94527;-61
2023/08/20 09:41:51;;;;;;;;;;;23.80;65.00;;;;;;10160840;28;93200;-61
2023/08/20 09:46:53;;;;;;;;;;;23.80;65.00;;;;;;10148685;28;93340;-61
2023/08/20 09:51:57;;;;;;;;;;;23.80;64.80;;;;;;10161162;28;93829;-61
2023/08/20 09:57:00;;;;;;;;;;;24.00;64.70;;;;;;10158271;28;97158;-60
2023/08/20 10:02:02;;;;;;;;;;;24.10;64.50;;;;;;10157736;28;94452;-61
2023/08/20 10:07:04;;;;;;;;;;;24.20;64.20;;;;;;10158082;28;93517;-64
2023/08/20 10:12:06;;;;;;;;;;;24.30;64.00;;;;;;10158583;28;94527;-61
2023/08/20 10:17:09;;;;;;;;;;;24.40;63.80;;;;;;10171133;28;94048;-61
2023/08/20 10:22:11;;;;;;;;;;;24.50;63.60;;;;;;10161096;28;94155;-61
2023/08/20 10:27:13;;;;;;;;;;;24.50;63.40;;;;;;10152507;28;93606;-61
2023/08/20 10:32:14;;;;;;;;;;;24.60;63.40;;;;;;10168419;28;92762;-61
2023/08/20 10:37:25;;;;;;;;;;;24.50;63.20;;;;;;10170642;28;93866;-61
2023/08/20 10:42:28;;;;;;;;;;;24.50;63.20;;;;;;10167243;28;93735;-62
2023/08/20 10:47:36;;;;;;;;;;;24.50;63.30;;;;;;10162723;28;97372;-61
2023/08/20 10:52:39;;;;;;;;;;;24.50;63.30;;;;;;10154170;28;93519;-60
2023/08/20 10:57:41;;;;;;;;;;;24.50;63.30;;;;;;10164138;28;94095;-61
2023/08/20 11:02:43;;;;;;;;;;;24.50;63.30;;;;;;10162691;28;94500;-61
2023/08/20 11:07:49;;;;;;;;;;;24.50;63.40;;;;;;10158254;28;93453;-61
2023/08/20 11:12:52;;;;;;;;;;;24.50;63.30;;;;;;10150852;28;93501;-61
2023/08/20 11:17:54;;;;;;;;;;;24.50;63.40;;;;;;10145160;28;94561;-61
2023/08/20 11:22:57;;;;;;;;;;;24.50;63.40;;;;;;10157281;28;93894;-61
2023/08/20 11:27:58;;;;;;;;;;;24.50;63.50;;;;;;10170808;28;94386;-61
2023/08/20 11:33:00;;;;;;;;;;;24.50;64.50;;;;;;10171802;28;93573;-61
2023/08/20 11:38:05;;;;;;;;;;;24.50;63.50;;;;;;10149948;28;96844;-60
2023/08/20 11:43:07;;;;;;;;;;;24.40;63.50;;;;;;10156506;28;94749;-61
2023/08/20 11:48:10;;;;;;;;;;;24.40;63.60;;;;;;10153639;28;93452;-61
2023/08/20 11:53:12;;;;;;;;;;;24.40;63.60;;;;;;10137328;28;94524;-61
2023/08/20 11:58:14;;;;;;;;;;;24.40;63.70;;;;;;10152686;28;93467;-61
2023/08/20 12:03:17;;;;;;;;;;;24.40;63.80;;;;;;10142640;28;93525;-61
2023/08/20 12:08:20;;;;;;;;;;;24.30;63.70;;;;;;10154422;28;94469;-61
2023/08/20 12:13:23;;;;;;;;;;;24.30;63.80;;;;;;10162665;28;93646;-60
2023/08/20 12:18:25;;;;;;;;;;;24.30;63.80;;;;;;10155756;28;94607;-61
2023/08/20 12:23:27;;;;;;;;;;;24.30;63.80;;;;;;10157861;28;95233;-61
2023/08/20 12:28:29;;;;;;;;;;;24.30;63.80;;;;;;10155671;28;96008;-61
2023/08/20 12:33:31;;;;;;;;;;;24.30;63.70;;;;;;10160798;28;93493;-61
2023/08/20 12:38:34;;;;;;;;;;;24.30;63.80;;;;;;10155314;28;94468;-60
2023/08/20 12:43:36;;;;;;;;;;;24.30;63.70;;;;;;10155196;28;93420;-62
2023/08/20 12:48:37;;;;;;;;;;;24.30;63.60;;;;;;10142529;28;94785;-62
2023/08/20 12:53:40;;;;;;;;;;;24.30;63.50;;;;;;10143479;28;93448;-61
2023/08/20 12:58:41;;;;;;;;;;;24.30;63.50;;;;;;10148020;28;93505;-61
2023/08/20 13:03:43;;;;;;;;;;;24.30;63.40;;;;;;10154190;28;93666;-61
2023/08/20 13:08:45;;;;;;;;;;;24.30;63.20;;;;;;10145682;28;94608;-61
2023/08/20 13:13:47;;;;;;;;;;;24.30;63.00;;;;;;10148734;28;94523;-61
2023/08/20 13:18:49;;;;;;;;;;;24.40;63.00;;;;;;10151030;28;97003;-61
2023/08/20 13:23:52;;;;;;;;;;;24.40;63.00;;;;;;10139089;28;94019;-61
2023/08/20 13:28:53;;;;;;;;;;;24.40;63.00;;;;;;10152069;28;93363;-61
2023/08/20 13:33:57;;;;;;;;;;;24.40;63.00;;;;;;10151834;28;93853;-61
2023/08/20 13:38:59;;;;;;;;;;;24.40;62.90;;;;;;10152375;28;94443;-61
2023/08/20 13:44:01;;;;;;;;;;;24.40;62.90;;;;;;10139540;28;94386;-61
2023/08/20 13:49:02;;;;;;;;;;;24.40;62.80;;;;;;10153088;28;94447;-61
2023/08/20 13:54:04;;;;;;;;;;;24.40;62.70;;;;;;10157748;28;94230;-60
2023/08/20 13:59:06;;;;;;;;;;;24.40;62.80;;;;;;10154242;28;94488;-62
2023/08/20 14:04:08;;;;;;;;;;;24.40;62.90;;;;;;10161708;28;93462;-61
2023/08/20 14:09:10;;;;;;;;;;;24.50;62.90;;;;;;10146512;28;95310;-61
2023/08/20 14:14:12;;;;;;;;;;;24.50;62.90;;;;;;10161448;28;93854;-61
2023/08/20 14:19:14;;;;;;;;;;;24.50;63.00;;;;;;10153179;28;94576;-61
2023/08/20 14:24:15;;;;;;;;;;;24.40;62.90;;;;;;10153871;28;94527;-62
2023/08/20 14:29:19;;;;;;;;;;;24.40;63.00;;;;;;10164940;28;93554;-61
2023/08/20 14:34:21;;;;;;;;;;;24.40;63.00;;;;;;10151723;28;93801;-61
2023/08/20 14:39:24;;;;;;;;;;;24.40;62.70;;;;;;10149929;28;94209;-62
2023/08/20 14:44:27;;;;;;;;;;;24.40;62.90;;;;;;10138746;28;92502;-61
2023/08/20 14:49:29;;;;;;;;;;;24.40;62.80;;;;;;10165890;28;93547;-61
2023/08/20 14:54:31;;;;;;;;;;;24.50;62.90;;;;;;10164245;28;94948;-62
2023/08/20 14:59:32;;;;;;;;;;;24.40;62.90;;;;;;10155328;28;95924;-61
2023/08/20 15:04:34;;;;;;;;;;;24.40;62.90;;;;;;10151990;28;94858;-61
2023/08/20 15:09:36;;;;;;;;;;;24.40;63.00;;;;;;10158533;28;94368;-62
2023/08/20 15:14:41;;;;;;;;;;;24.40;63.10;;;;;;10156771;28;94396;-61
2023/08/20 15:19:43;;;;;;;;;;;24.50;63.10;;;;;;10148987;28;94080;-62
2023/08/20 15:24:44;;;;;;;;;;;24.40;63.10;;;;;;10151206;28;93480;-61
2023/08/20 15:29:46;;;;;;;;;;;24.40;63.00;;;;;;10154456;28;93629;-61
2023/08/20 15:34:48;;;;;;;;;;;24.50;63.10;;;;;;10147624;28;93680;-62
2023/08/20 15:39:50;;;;;;;;;;;24.50;63.20;;;;;;10154427;28;94491;-61
2023/08/20 15:44:55;;;;;;;;;;;24.40;63.10;;;;;;10153768;28;94079;-61
2023/08/20 15:49:57;;;;;;;;;;;24.40;63.20;;;;;;10163971;28;95798;-61
2023/08/20 15:54:59;;;;;;;;;;;24.50;63.00;;;;;;10138662;28;93746;-61
2023/08/20 16:00:02;;;;;;;;;;;24.50;63.00;;;;;;10169100;28;92969;-62
2023/08/20 16:05:04;;;;;;;;;;;24.50;63.00;;;;;;10166978;28;94658;-61
2023/08/20 16:10:12;;;;;;;;;;;24.50;63.00;;;;;;10164964;28;94780;-67
2023/08/20 16:15:13;;;;;;;;;;;24.50;63.20;;;;;;10161036;28;93499;-67
2023/08/20 16:20:15;;;;;;;;;;;24.50;62.30;;;;;;10160099;28;94320;-68
2023/08/20 16:25:17;;;;;;;;;;;24.50;61.70;;;;;;10158128;28;91837;-67
2023/08/20 16:30:19;;;;;;;;;;;24.40;60.70;;;;;;10157244;28;94481;-72
2023/08/20 16:35:20;;;;;;;;;;;24.40;62.00;;;;;;10157561;28;93483;-67
2023/08/20 16:40:25;;;;;;;;;;;24.60;61.40;;;;;;10142847;28;95729;-67
2023/08/20 16:45:27;;;;;;;;;;;24.70;61.40;;;;;;10153376;28;92595;-67
2023/08/20 16:50:29;;;;;;;;;;;24.80;61.00;;;;;;10152116;28;94366;-66
2023/08/20 16:55:31;;;;;;;;;;;24.90;59.90;;;;;;10154963;28;93495;-67
2023/08/20 17:00:34;;;;;;;;;;;24.90;59.40;;;;;;10152900;28;94460;-67
2023/08/20 17:05:36;;;;;;;;;;;24.90;59.40;;;;;;10144310;28;94021;-66
2023/08/20 17:10:38;;;;;;;;;;;24.90;59.80;;;;;;10152315;28;93597;-66
2023/08/20 17:15:41;;;;;;;;;;;24.80;58.60;;;;;;10174577;28;92219;-63
2023/08/20 17:20:43;;;;;;;;;;;24.80;58.70;;;;;;10148837;28;93703;-64
2023/08/20 17:25:45;;;;;;;;;;;24.80;58.50;;;;;;10160239;28;94396;-64
2023/08/20 17:30:46;;;;;;;;;;;24.80;58.80;;;;;;10158047;28;96913;-64
2023/08/20 17:35:48;;;;;;;;;;;24.80;58.70;;;;;;10156614;28;93514;-63
2023/08/20 17:40:50;;;;;;;;;;;24.70;58.50;;;;;;10160315;28;94488;-63
2023/08/20 17:45:55;;;;;;;;;;;24.70;58.80;;;;;;10160047;28;94112;-63
2023/08/20 17:50:58;;;;;;;;;;;24.70;59.00;;;;;;10160226;28;93434;-63
2023/08/20 17:55:59;;;;;;;;;;;24.70;59.10;;;;;;10159507;28;94397;-63
2023/08/20 18:01:02;;;;;;;;;;;24.70;59.20;;;;;;10167309;28;92567;-64
2023/08/20 18:06:04;;;;;;;;;;;24.60;59.10;;;;;;10163941;28;93897;-64
2023/08/20 18:11:06;;;;;;;;;;;24.60;58.90;;;;;;10159881;28;94484;-64
2023/08/20 18:16:08;;;;;;;;;;;24.60;58.90;;;;;;10158860;28;94590;-64
2023/08/20 18:21:10;;;;;;;;;;;24.60;59.00;;;;;;10176869;28;97116;-66
2023/08/20 18:26:12;;;;;;;;;;;24.60;59.00;;;;;;10166199;28;93879;-62
2023/08/20 18:31:13;;;;;;;;;;;24.60;58.90;;;;;;10162861;28;94410;-64
2023/08/20 18:36:15;;;;;;;;;;;24.50;59.00;;;;;;10161086;28;93160;-64
2023/08/20 18:41:19;;;;;;;;;;;24.50;59.20;;;;;;10154583;28;94013;-64
2023/08/20 18:46:20;;;;;;;;;;;24.50;59.10;;;;;;10155096;28;93742;-64
2023/08/20 18:51:24;;;;;;;;;;;24.50;59.10;;;;;;10158594;28;94990;-64
2023/08/20 18:56:27;;;;;;;;;;;24.50;59.30;;;;;;10141723;28;94053;-64
2023/08/20 19:01:28;;;;;;;;;;;24.50;59.20;;;;;;10145922;28;93676;-63
2023/08/20 19:06:30;;;;;;;;;;;24.40;59.10;;;;;;10158057;28;93308;-64
2023/08/20 19:11:32;;;;;;;;;;;24.40;59.40;;;;;;10153784;28;96472;-65
2023/08/20 19:16:34;;;;;;;;;;;24.40;59.40;;;;;;10156936;28;93847;-64
2023/08/20 19:21:35;;;;;;;;;;;24.40;59.50;;;;;;10158127;28;93389;-64
2023/08/20 19:26:38;;;;;;;;;;;24.40;59.70;;;;;;10158092;28;94729;-64
2023/08/20 19:31:41;;;;;;;;;;;24.40;59.90;;;;;;10141043;28;93454;-64
2023/08/20 19:36:42;;;;;;;;;;;24.40;60.00;;;;;;10171114;28;93534;-65
2023/08/20 19:41:44;;;;;;;;;;;24.40;60.10;;;;;;10145432;28;95169;-64
2023/08/20 19:46:46;;;;;;;;;;;24.40;60.30;;;;;;10160006;28;92962;-64
2023/08/20 19:51:48;;;;;;;;;;;24.40;60.40;;;;;;10157241;28;94828;-63
2023/08/20 19:56:50;;;;;;;;;;;24.40;60.60;;;;;;10158822;28;94661;-64
2023/08/20 20:01:55;;;;;;;;;;;24.40;60.70;;;;;;10156074;28;95904;-64
2023/08/20 20:06:58;;;;;;;;;;;24.50;61.90;;;;;;10169567;28;94166;-64
2023/08/20 20:12:20;;;;;;;;;;;24.50;61.00;;;;;;10159655;28;96450;-63
2023/08/20 20:17:21;;;;;;;;;;;24.50;61.00;;;;;;10184311;28;94761;-63
2023/08/20 20:22:27;;;;;;;;;;;24.50;61.10;;;;;;10192936;28;93187;-64
2023/08/20 20:27:29;;;;;;;;;;;24.50;61.20;;;;;;10169166;28;93433;-63
2023/08/20 20:32:32;;;;;;;;;;;24.50;61.30;;;;;;10188651;28;93489;-64
2023/08/20 20:37:34;;;;;;;;;;;24.50;61.40;;;;;;10156346;28;93723;-63
2023/08/20 20:42:36;;;;;;;;;;;24.50;61.50;;;;;;10149273;28;93841;-66
2023/08/20 20:47:39;;;;;;;;;;;24.40;61.40;;;;;;10153941;28;93747;-64
2023/08/20 20:52:43;;;;;;;;;;;24.50;61.60;;;;;;10153628;28;96083;-64
2023/08/20 20:57:45;;;;;;;;;;;24.40;61.50;;;;;;10179766;28;94417;-64
2023/08/20 21:02:46;;;;;;;;;;;24.40;61.70;;;;;;10167847;28;93521;-64
2023/08/20 21:07:48;;;;;;;;;;;24.40;61.60;;;;;;10168217;28;94806;-64
2023/08/20 21:12:50;;;;;;;;;;;24.40;61.70;;;;;;10166713;28;93882;-64
2023/08/20 21:17:53;;;;;;;;;;;24.40;61.70;;;;;;10181973;28;93735;-64
2023/08/20 21:22:57;;;;;;;;;;;24.40;61.80;;;;;;10149780;28;93806;-63
2023/08/20 21:27:59;;;;;;;;;;;24.40;61.90;;;;;;10166300;28;92662;-64
2023/08/20 21:33:01;;;;;;;;;;;24.40;62.00;;;;;;10165920;28;94445;-63
2023/08/20 21:38:02;;;;;;;;;;;24.40;63.00;;;;;;10160143;28;93676;-64
2023/08/20 21:43:04;;;;;;;;;;;24.40;62.10;;;;;;10155724;28;96498;-63
2023/08/20 21:48:06;;;;;;;;;;;24.40;62.10;;;;;;10164922;28;94559;-63
2023/08/20 21:53:09;;;;;;;;;;;24.40;62.10;;;;;;10163978;28;93028;-64
2023/08/20 21:58:11;;;;;;;;;;;24.30;62.10;;;;;;10149377;28;94486;-64
2023/08/20 22:03:13;;;;;;;;;;;24.30;62.10;;;;;;10166033;28;94445;-64
2023/08/20 22:08:17;;;;;;;;;;;24.30;62.00;;;;;;10160732;28;92900;-63
2023/08/20 22:13:19;;;;;;;;;;;24.30;62.10;;;;;;10170724;28;93708;-63
2023/08/20 22:18:21;;;;;;;;;;;24.30;62.10;;;;;;10147891;28;93337;-63
2023/08/20 22:23:23;;;;;;;;;;;24.30;62.00;;;;;;10157557;28;94042;-63
2023/08/20 22:28:25;;;;;;;;;;;24.30;62.00;;;;;;10174935;28;93460;-63
2023/08/20 22:33:27;;;;;;;;;;;24.30;62.10;;;;;;10162161;28;95576;-63
2023/08/20 22:38:29;;;;;;;;;;;24.30;62.00;;;;;;10160070;28;93124;-63
2023/08/20 22:43:31;;;;;;;;;;;24.30;62.00;;;;;;10158484;28;94450;-66
2023/08/20 22:48:33;;;;;;;;;;;24.30;62.00;;;;;;10153908;28;94717;-63
2023/08/20 22:53:35;;;;;;;;;;;24.30;62.00;;;;;;10155348;28;94086;-66
2023/08/20 22:58:37;;;;;;;;;;;24.30;62.00;;;;;;10167089;28;93387;-67
2023/08/20 23:03:40;;;;;;;;;;;24.30;62.00;;;;;;10157346;28;94558;-66
2023/08/20 23:08:42;;;;;;;;;;;24.30;62.00;;;;;;10146777;28;91973;-68
2023/08/20 23:13:43;;;;;;;;;;;24.30;62.00;;;;;;10158673;28;93467;-67
2023/08/20 23:18:45;;;;;;;;;;;24.30;61.90;;;;;;10181307;28;93780;-66
2023/08/20 23:23:47;;;;;;;;;;;24.30;61.90;;;;;;10155312;28;96940;-67
2023/08/20 23:28:49;;;;;;;;;;;24.20;61.80;;;;;;10155664;28;93482;-67
2023/08/20 23:33:51;;;;;;;;;;;24.20;61.80;;;;;;10157652;28;94416;-67
2023/08/20 23:38:54;;;;;;;;;;;24.20;61.90;;;;;;10156136;28;93832;-67
2023/08/20 23:43:56;;;;;;;;;;;24.20;61.80;;;;;;10154093;28;94409;-68
2023/08/20 23:48:58;;;;;;;;;;;24.20;61.80;;;;;;10137710;28;93514;-67
2023/08/20 23:54:00;;;;;;;;;;;24.20;61.70;;;;;;10155393;28;93514;-67
2023/08/20 23:59:04;;;;;;;;;;;24.20;61.70;;;;;;10154120;28;113618;-66
